Time;durP1;ratioP1;P1;durP2;ratioP2;P2;SDS_P1;SDS_P2;PMS_P1;PMS_P2;Temp;Humidity;BMP_temperature;BMP_pressure;BME280_temperature;BME280_humidity;BME280_pressure;Samples;Min_cycle;Max_cycle;Signal;HPM_P1;HPM_P2
2022/07/25 00:02:05;;;;;;;5.18;1.48;;;;;;;17.41;100.00;99354.41;5069282;28;20049;-85
2022/07/25 00:04:34;;;;;;;3.25;1.20;;;;;;;17.44;100.00;99368.19;5039402;28;20052;-85
2022/07/25 00:07:01;;;;;;;7.53;2.03;;;;;;;17.15;100.00;99346.94;5053575;28;20049;-85
2022/07/25 00:09:28;;;;;;;4.03;1.27;;;;;;;17.23;100.00;99344.47;5065903;28;20048;-85
2022/07/25 00:11:54;;;;;;;4.40;1.25;;;;;;;17.47;100.00;99359.13;5055488;28;20072;-85
2022/07/25 00:14:21;;;;;;;5.10;1.52;;;;;;;17.32;100.00;99328.78;5066207;28;20068;-84
2022/07/25 00:16:48;;;;;;;3.38;1.25;;;;;;;17.33;100.00;99352.41;5050697;28;20055;-83
2022/07/25 00:19:15;;;;;;;4.70;1.10;;;;;;;17.46;100.00;99347.72;5046404;28;20049;-85
2022/07/25 00:21:41;;;;;;;5.25;1.45;;;;;;;17.47;100.00;99361.78;5053863;28;20048;-85
2022/07/25 00:24:08;;;;;;;4.68;1.42;;;;;;;17.48;100.00;99363.47;5058533;28;20631;-85
2022/07/25 00:26:36;;;;;;;3.55;1.27;;;;;;;17.43;100.00;99355.94;5064797;28;20048;-84
2022/07/25 00:29:06;;;;;;;4.72;1.50;;;;;;;17.37;100.00;99347.69;5071088;28;20044;-84
2022/07/25 00:31:32;;;;;;;2.38;1.00;;;;;;;17.36;100.00;99343.38;5082877;28;20048;-84
2022/07/25 00:33:59;;;;;;;5.15;1.40;;;;;;;17.33;100.00;99344.47;5060176;28;20052;-84
2022/07/25 00:36:26;;;;;;;2.90;1.20;;;;;;;17.10;100.00;99348.31;5053325;28;20045;-84
2022/07/25 00:38:54;;;;;;;5.57;1.50;;;;;;;17.10;100.00;99332.44;5056231;28;20071;-84
2022/07/25 00:41:21;;;;;;;3.78;1.40;;;;;;;17.19;100.00;99353.66;5057948;28;20041;-85
2022/07/25 00:43:50;;;;;;;4.10;1.40;;;;;;;17.19;100.00;99351.00;5056114;28;20136;-84
2022/07/25 00:46:17;;;;;;;6.80;1.48;;;;;;;17.09;100.00;99352.78;5081934;28;20044;-85
2022/07/25 00:48:46;;;;;;;4.80;1.60;;;;;;;17.22;100.00;99357.81;5078015;28;20044;-84
2022/07/25 00:51:14;;;;;;;4.97;1.60;;;;;;;17.00;100.00;99361.50;5063253;28;20036;-85
2022/07/25 00:53:42;;;;;;;6.38;1.52;;;;;;;16.92;100.00;99326.94;5064000;28;20131;-85
2022/07/25 00:56:08;;;;;;;5.88;1.63;;;;;;;16.86;100.00;99352.94;5060392;28;20391;-84
2022/07/25 00:58:35;;;;;;;6.95;1.80;;;;;;;16.93;100.00;99352.41;5085617;28;20486;-84
2022/07/25 01:01:03;;;;;;;3.97;1.42;;;;;;;16.94;100.00;99376.06;5076718;28;20071;-85
2022/07/25 01:03:30;;;;;;;6.57;1.60;;;;;;;16.80;100.00;99363.16;5062057;28;20076;-84
2022/07/25 01:05:57;;;;;;;5.00;1.60;;;;;;;16.79;100.00;99369.44;5053083;28;20483;-85
2022/07/25 01:08:24;;;;;;;2.90;1.27;;;;;;;16.81;100.00;99370.13;5073446;28;20075;-84
2022/07/25 01:10:52;;;;;;;5.13;1.10;;;;;;;16.94;100.00;99364.66;5075385;28;20049;-85
2022/07/25 01:13:18;;;;;;;4.07;1.30;;;;;;;16.85;100.00;99377.69;5050655;28;20047;-85
2022/07/25 01:15:46;;;;;;;2.88;1.10;;;;;;;16.93;100.00;99365.63;5060982;28;20052;-84
2022/07/25 01:18:13;;;;;;;2.58;1.10;;;;;;;16.88;100.00;99358.09;5070787;28;20056;-85
2022/07/25 01:20:40;;;;;;;1.90;0.90;;;;;;;17.01;100.00;99369.28;5056706;28;20051;-84
2022/07/25 01:23:06;;;;;;;2.72;1.02;;;;;;;17.00;100.00;99374.72;5060039;28;20359;-84
2022/07/25 01:25:33;;;;;;;2.50;1.05;;;;;;;17.01;100.00;99379.03;5053418;28;20409;-84
2022/07/25 01:28:00;;;;;;;2.40;0.80;;;;;;;17.03;100.00;99372.66;5054378;28;20055;-84
2022/07/25 01:30:27;;;;;;;3.00;1.17;;;;;;;17.06;100.00;99380.31;5048107;28;20061;-84
2022/07/25 01:32:54;;;;;;;5.88;1.20;;;;;;;16.67;100.00;99360.75;5041757;28;20048;-85
2022/07/25 01:35:21;;;;;;;2.35;1.00;;;;;;;16.78;100.00;99373.03;5051659;28;20049;-84
2022/07/25 01:37:47;;;;;;;2.55;1.10;;;;;;;16.85;100.00;99376.84;5036131;28;20472;-85
2022/07/25 01:40:14;;;;;;;3.78;1.50;;;;;;;16.93;100.00;99377.06;5049007;28;20048;-85
2022/07/25 01:42:42;;;;;;;4.40;1.15;;;;;;;16.93;100.00;99389.41;5050765;28;20482;-84
2022/07/25 01:45:11;;;;;;;2.13;0.90;;;;;;;16.82;100.00;99391.16;5054038;28;20057;-84
2022/07/25 01:47:39;;;;;;;3.78;1.20;;;;;;;16.86;100.00;99382.03;5070552;28;20041;-84
2022/07/25 01:50:06;;;;;;;2.70;1.08;;;;;;;16.78;100.00;99376.50;5051894;28;20376;-84
2022/07/25 01:52:35;;;;;;;1.50;0.90;;;;;;;16.72;100.00;99365.66;5055542;28;20060;-85
2022/07/25 01:55:02;;;;;;;2.55;1.00;;;;;;;16.76;100.00;99396.94;5045197;28;20418;-84
2022/07/25 01:57:31;;;;;;;2.15;0.90;;;;;;;16.81;100.00;99384.19;5050575;28;20045;-84
2022/07/25 01:59:58;;;;;;;2.08;1.00;;;;;;;16.79;100.00;99380.00;5073531;28;20161;-85
2022/07/25 02:02:25;;;;;;;3.45;0.93;;;;;;;16.74;100.00;99375.09;5071305;28;20059;-84
2022/07/25 02:04:52;;;;;;;5.10;1.02;;;;;;;16.65;100.00;99383.81;5039845;28;20049;-84
2022/07/25 02:07:19;;;;;;;3.08;1.00;;;;;;;16.63;100.00;99397.16;5036023;28;20063;-84
2022/07/25 02:09:46;;;;;;;3.90;1.10;;;;;;;16.55;100.00;99382.91;5054220;28;20048;-84
2022/07/25 02:12:13;;;;;;;2.50;1.00;;;;;;;16.69;100.00;99379.94;5048794;28;20400;-84
2022/07/25 02:14:39;;;;;;;3.65;1.00;;;;;;;16.61;100.00;99391.16;5043667;28;20076;-85
2022/07/25 02:17:07;;;;;;;5.05;1.23;;;;;;;16.61;100.00;99399.09;5061520;28;20477;-85
2022/07/25 02:19:34;;;;;;;2.75;1.10;;;;;;;16.58;100.00;99396.69;5052859;28;20065;-85
2022/07/25 02:22:01;;;;;;;2.60;1.00;;;;;;;16.47;100.00;99394.13;5088015;28;20044;-84
2022/07/25 02:24:28;;;;;;;3.15;1.00;;;;;;;16.37;100.00;99386.13;5060545;28;20054;-85
2022/07/25 02:26:55;;;;;;;2.35;1.25;;;;;;;16.47;100.00;99389.69;5053057;28;20044;-84
2022/07/25 02:29:22;;;;;;;1.65;0.80;;;;;;;16.63;100.00;99398.97;5060753;28;20049;-85
2022/07/25 02:31:50;;;;;;;1.83;0.88;;;;;;;16.67;100.00;99401.22;5040532;28;20055;-84
2022/07/25 02:34:17;;;;;;;1.75;0.88;;;;;;;16.60;100.00;99388.66;5063409;28;20079;-85
2022/07/25 02:36:44;;;;;;;1.13;0.70;;;;;;;16.66;100.00;99394.25;5085009;28;20044;-85
2022/07/25 02:39:11;;;;;;;1.42;0.80;;;;;;;16.71;100.00;99391.22;5091939;28;20127;-84
2022/07/25 02:41:38;;;;;;;2.95;1.00;;;;;;;16.70;100.00;99393.03;5075072;28;20056;-85
2022/07/25 02:44:05;;;;;;;1.20;0.73;;;;;;;16.79;100.00;99375.56;5060165;28;20489;-85
2022/07/25 02:46:32;;;;;;;3.03;0.80;;;;;;;16.85;100.00;99367.13;5071847;28;20082;-84
2022/07/25 02:48:59;;;;;;;1.95;0.88;;;;;;;16.88;100.00;99385.38;5073331;28;20084;-84
2022/07/25 02:51:26;;;;;;;3.40;1.25;;;;;;;16.76;100.00;99375.81;5067080;28;20052;-84
2022/07/25 02:53:53;;;;;;;4.70;0.80;;;;;;;16.81;100.00;99376.25;5056117;28;20051;-84
2022/07/25 02:56:25;;;;;;;2.30;0.90;;;;;;;16.73;100.00;99391.91;5035525;28;20045;-82
2022/07/25 02:58:55;;;;;;;6.03;1.45;;;;;;;16.62;100.00;99387.53;5034879;28;20487;-86
2022/07/25 03:01:22;;;;;;;3.25;1.00;;;;;;;16.78;100.00;99380.97;5033935;28;20052;-85
2022/07/25 03:03:49;;;;;;;1.92;1.00;;;;;;;16.81;100.00;99384.19;5044585;28;20060;-85
2022/07/25 03:06:16;;;;;;;2.88;0.98;;;;;;;16.78;100.00;99386.25;5072296;28;20047;-87
2022/07/25 03:08:42;;;;;;;1.60;0.90;;;;;;;16.77;100.00;99389.84;5066704;28;20490;-87
2022/07/25 03:11:10;;;;;;;1.40;0.85;;;;;;;16.57;100.00;99384.44;5074670;28;20482;-85
2022/07/25 03:13:37;;;;;;;1.60;0.70;;;;;;;16.57;100.00;99380.97;5039189;28;20056;-85
2022/07/25 03:16:04;;;;;;;2.17;0.90;;;;;;;16.65;100.00;99378.53;5034916;28;20045;-85
2022/07/25 03:18:31;;;;;;;3.25;0.98;;;;;;;16.71;100.00;99383.28;5082845;28;20405;-86
2022/07/25 03:20:57;;;;;;;1.73;0.90;;;;;;;16.60;100.00;99386.00;5062863;28;20048;-86
2022/07/25 03:23:26;;;;;;;3.42;0.90;;;;;;;16.67;100.00;99384.53;5057703;28;20045;-85
2022/07/25 03:25:54;;;;;;;2.65;1.17;;;;;;;16.62;100.00;99389.34;5060170;28;20051;-84
2022/07/25 03:28:20;;;;;;;2.20;0.90;;;;;;;16.62;100.00;99374.31;5047879;28;20053;-85
2022/07/25 03:30:47;;;;;;;3.50;0.90;;;;;;;16.55;100.00;99382.91;5053917;28;20045;-84
2022/07/25 03:33:14;;;;;;;0.90;0.70;;;;;;;16.62;100.00;99379.63;5059200;28;20134;-84
2022/07/25 03:35:41;;;;;;;1.23;0.70;;;;;;;16.62;100.00;99387.53;5040636;28;20508;-85
2022/07/25 03:38:07;;;;;;;1.42;0.70;;;;;;;16.61;100.00;99385.03;5052997;28;20048;-85
2022/07/25 03:40:35;;;;;;;1.38;0.88;;;;;;;16.78;100.00;99387.09;5067675;28;20047;-85
2022/07/25 03:43:02;;;;;;;1.23;0.70;;;;;;;16.48;100.00;99364.94;5073333;28;20057;-85
2022/07/25 03:45:28;;;;;;;1.73;0.90;;;;;;;16.58;100.00;99391.41;5034495;28;20059;-85
2022/07/25 03:47:55;;;;;;;2.00;0.80;;;;;;;16.72;100.00;99402.66;5060714;28;20051;-85
2022/07/25 03:50:22;;;;;;;1.35;0.70;;;;;;;16.64;100.00;99383.00;5074590;28;20060;-86
2022/07/25 03:52:49;;;;;;;1.33;0.70;;;;;;;16.52;100.00;99384.03;5062955;28;20077;-85
2022/07/25 03:55:16;;;;;;;1.40;0.80;;;;;;;16.72;100.00;99392.06;5046071;28;20051;-86
2022/07/25 03:57:42;;;;;;;0.98;0.70;;;;;;;16.42;100.00;99378.66;5069835;28;20058;-86
2022/07/25 04:00:11;;;;;;;2.97;0.90;;;;;;;16.58;100.00;99394.06;5065632;28;20052;-85
2022/07/25 04:02:38;;;;;;;1.38;0.80;;;;;;;16.54;100.00;99389.16;5091217;28;20054;-86
2022/07/25 04:05:06;;;;;;;1.63;0.75;;;;;;;16.47;100.00;99381.75;5064391;28;20061;-85
2022/07/25 04:07:33;;;;;;;1.35;0.75;;;;;;;16.46;100.00;99377.41;5065342;28;20040;-85
2022/07/25 04:10:00;;;;;;;1.77;1.02;;;;;;;16.61;100.00;99382.38;5059018;28;20048;-85
2022/07/25 04:12:27;;;;;;;1.95;0.70;;;;;;;16.66;100.00;99396.03;5040038;28;20057;-86
2022/07/25 04:14:54;;;;;;;0.70;0.60;;;;;;;16.59;100.00;99385.19;5059228;28;20406;-86
2022/07/25 04:17:21;;;;;;;0.90;0.68;;;;;;;16.65;100.00;99387.28;5093008;28;20048;-85
2022/07/25 04:19:50;;;;;;;0.70;0.70;;;;;;;16.63;100.00;99378.66;5067846;28;20387;-85
2022/07/25 04:22:17;;;;;;;1.38;0.70;;;;;;;16.72;100.00;99371.75;5047707;28;20047;-86
2022/07/25 04:24:44;;;;;;;1.40;0.68;;;;;;;17.03;100.00;99387.66;5079240;28;20051;-85
2022/07/25 04:27:10;;;;;;;1.67;0.70;;;;;;;16.84;100.00;99375.19;5084817;28;20048;-85
2022/07/25 04:29:39;;;;;;;1.85;0.70;;;;;;;16.73;100.00;99377.88;5075495;28;20082;-86
2022/07/25 04:32:06;;;;;;;0.85;0.60;;;;;;;16.95;100.00;99383.03;5057045;28;20433;-85
2022/07/25 04:34:33;;;;;;;0.80;0.60;;;;;;;16.80;100.00;99371.09;5042432;28;20061;-85
2022/07/25 04:37:00;;;;;;;0.93;0.60;;;;;;;16.73;100.00;99372.59;5073336;28;20539;-85
2022/07/25 04:39:26;;;;;;;0.68;0.60;;;;;;;16.67;100.00;99397.72;5058106;28;20055;-85
2022/07/25 04:41:53;;;;;;;3.92;1.00;;;;;;;16.97;100.00;99389.03;5043139;28;20062;-85
2022/07/25 04:44:20;;;;;;;1.35;0.60;;;;;;;16.79;100.00;99395.88;5065634;28;20521;-85
2022/07/25 04:46:47;;;;;;;2.42;0.65;;;;;;;16.84;100.00;99415.69;5090181;28;20405;-86
2022/07/25 04:49:13;;;;;;;1.88;0.80;;;;;;;16.52;100.00;99413.09;5054292;28;20048;-85
2022/07/25 04:51:40;;;;;;;1.98;0.70;;;;;;;16.68;100.00;99416.09;5048674;28;20053;-85
2022/07/25 04:54:08;;;;;;;5.35;1.13;;;;;;;16.67;100.00;99401.22;5047684;28;20049;-86
2022/07/25 04:56:35;;;;;;;2.40;0.88;;;;;;;16.89;100.00;99402.91;5054898;28;20136;-87
2022/07/25 04:59:02;;;;;;;2.72;0.73;;;;;;;16.82;100.00;99411.44;5038033;28;20045;-84
2022/07/25 05:01:33;;;;;;;1.70;0.60;;;;;;;17.04;100.00;99406.03;5054657;28;20053;-85
2022/07/25 05:04:00;;;;;;;2.67;0.90;;;;;;;17.22;100.00;99406.25;5044596;28;20049;-85
2022/07/25 05:06:27;;;;;;;1.85;0.80;;;;;;;17.19;100.00;99398.63;5058602;28;20480;-85
2022/07/25 05:08:54;;;;;;;2.17;0.80;;;;;;;17.12;100.00;99394.78;5073719;28;20045;-85
2022/07/25 05:11:21;;;;;;;1.73;0.75;;;;;;;17.17;100.00;99413.75;5043669;28;20081;-84
2022/07/25 05:13:47;;;;;;;1.10;0.70;;;;;;;17.29;100.00;99401.28;5043230;28;20048;-85
2022/07/25 05:16:14;;;;;;;1.15;0.68;;;;;;;17.38;100.00;99403.13;5042418;28;20048;-85
2022/07/25 05:18:41;;;;;;;1.90;0.80;;;;;;;17.48;100.00;99389.94;5073603;28;20048;-84
2022/07/25 05:21:11;;;;;;;2.30;0.70;;;;;;;17.42;100.00;99401.91;5070432;28;20501;-84
2022/07/25 05:23:39;;;;;;;1.80;0.80;;;;;;;17.44;100.00;99399.09;5072150;28;20452;-84
2022/07/25 05:26:06;;;;;;;1.25;0.60;;;;;;;17.62;100.00;99401.97;5073239;28;20380;-85
2022/07/25 05:28:33;;;;;;;0.65;0.50;;;;;;;17.54;100.00;99404.44;5064097;28;20052;-85
2022/07/25 05:31:00;;;;;;;2.17;0.70;;;;;;;17.52;100.00;99395.78;5075567;28;20052;-85
2022/07/25 05:33:26;;;;;;;2.45;0.80;;;;;;;17.71;100.00;99406.44;5064730;28;20051;-86
2022/07/25 05:35:53;;;;;;;2.53;0.70;;;;;;;17.50;100.00;99403.88;5073794;28;20053;-85
2022/07/25 05:38:20;;;;;;;0.82;0.50;;;;;;;17.73;100.00;99407.13;5073251;28;20048;-85
2022/07/25 05:40:47;;;;;;;3.63;0.80;;;;;;;18.09;100.00;99417.25;5044488;28;20404;-86
2022/07/25 05:43:14;;;;;;;3.67;0.70;;;;;;;18.05;100.00;99418.50;5052428;28;20074;-85
2022/07/25 05:45:41;;;;;;;1.90;0.70;;;;;;;18.15;100.00;99414.03;5051178;28;20055;-85
2022/07/25 05:48:08;;;;;;;1.33;0.70;;;;;;;18.14;100.00;99413.19;5071001;28;20052;-85
2022/07/25 05:50:37;;;;;;;0.60;0.60;;;;;;;18.29;100.00;99408.34;5043992;28;20498;-85
2022/07/25 05:53:04;;;;;;;1.40;0.65;;;;;;;18.44;100.00;99408.75;5066802;28;20124;-85
2022/07/25 05:55:31;;;;;;;1.42;0.60;;;;;;;18.67;100.00;99411.91;5056189;28;20044;-85
2022/07/25 05:57:58;;;;;;;0.95;0.57;;;;;;;18.56;100.00;99414.75;5042289;28;20501;-85
2022/07/25 06:00:28;;;;;;;0.63;0.60;;;;;;;18.70;100.00;99421.44;5048917;28;20045;-85
2022/07/25 06:02:58;;;;;;;0.80;0.50;;;;;;;18.65;100.00;99429.78;5062829;28;20132;-85
2022/07/25 06:05:25;;;;;;;2.80;0.85;;;;;;;18.16;100.00;99418.38;5050543;28;20052;-86
2022/07/25 06:07:52;;;;;;;3.75;0.80;;;;;;;18.11;100.00;99436.47;5055430;28;20475;-85
2022/07/25 06:10:19;;;;;;;2.00;0.77;;;;;;;18.29;100.00;99418.09;5042090;28;20083;-86
2022/07/25 06:12:46;;;;;;;2.38;0.80;;;;;;;18.21;100.00;99426.72;5057176;28;20052;-85
2022/07/25 06:15:13;;;;;;;1.52;0.80;;;;;;;17.80;100.00;99437.38;5053599;28;20537;-85
2022/07/25 06:17:52;;;;;;;1.13;0.70;;;;;;;18.12;100.00;99440.81;5076100;28;20052;-85
2022/07/25 06:20:19;;;;;;;7.80;0.90;;;;;;;18.04;100.00;99438.84;5063875;28;20055;-85
2022/07/25 06:22:46;;;;;;;1.85;0.80;;;;;;;18.16;100.00;99445.69;5040120;28;20650;-85
2022/07/25 06:25:13;;;;;;;1.73;0.80;;;;;;;18.35;100.00;99446.69;5061344;28;20054;-85
2022/07/25 06:27:41;;;;;;;2.67;0.80;;;;;;;18.48;100.00;99455.19;5080851;28;20660;-85
2022/07/25 06:30:08;;;;;;;3.30;0.80;;;;;;;18.26;100.00;99431.63;5087236;28;20078;-85
2022/07/25 06:32:45;;;;;;;2.25;0.80;;;;;;;18.56;100.00;99451.84;5064183;28;20049;-85
2022/07/25 06:35:12;;;;;;;2.42;0.93;;;;;;;18.66;100.00;99458.00;5038989;28;20049;-84
2022/07/25 06:37:39;;;;;;;2.83;0.82;;;;;;;18.52;100.00;99445.13;5071022;28;20123;-84
2022/07/25 06:40:07;;;;;;;2.25;0.90;;;;;;;17.98;100.00;99444.69;5056357;28;20044;-84
2022/07/25 06:42:39;;;;;;;3.88;0.88;;;;;;;18.21;100.00;99466.47;5039372;28;20478;-85
2022/07/25 06:45:10;;;;;;;2.58;0.90;;;;;;;18.12;100.00;99467.31;5074114;28;20044;-85
2022/07/25 06:47:39;;;;;;;4.30;0.95;;;;;;;17.80;100.00;99447.13;5064877;28;20359;-84
2022/07/25 06:50:08;;;;;;;3.40;1.00;;;;;;;18.11;100.00;99479.69;5058606;28;20049;-85
2022/07/25 06:52:38;;;;;;;3.80;0.80;;;;;;;18.57;100.00;99478.22;5061053;28;20189;-84
2022/07/25 06:55:06;;;;;;;2.33;0.77;;;;;;;18.68;100.00;99510.84;5055559;28;20045;-84
2022/07/25 06:57:34;;;;;;;2.70;0.90;;;;;;;18.45;100.00;99500.53;5066125;28;20055;-84
2022/07/25 07:00:05;;;;;;;2.80;0.90;;;;;;;18.43;100.00;99448.63;5049194;28;20084;-86
2022/07/25 07:02:32;;;;;;;2.03;0.77;;;;;;;18.57;100.00;99461.47;5061729;28;20049;-86
2022/07/25 07:04:59;;;;;;;4.88;1.25;;;;;;;18.69;100.00;99473.59;5071296;28;20050;-86
2022/07/25 07:07:26;;;;;;;4.72;0.80;;;;;;;19.21;100.00;99507.75;5053058;28;20051;-86
2022/07/25 07:09:53;;;;;;;3.08;0.73;;;;;;;19.26;100.00;99483.44;5062164;28;20150;-85
2022/07/25 07:12:20;;;;;;;1.75;0.52;;;;;;;19.30;100.00;99498.06;5061788;28;20053;-86
2022/07/25 07:14:47;;;;;;;1.38;0.60;;;;;;;19.46;100.00;99514.25;5047991;28;20135;-86
2022/07/25 07:17:14;;;;;;;1.67;1.00;;;;;;;19.31;100.00;99497.94;5084926;28;20052;-87
2022/07/25 07:19:44;;;;;;;1.23;0.50;;;;;;;19.33;100.00;99514.56;5079470;28;20135;-86
2022/07/25 07:22:12;;;;;;;1.48;0.70;;;;;;;19.35;100.00;99509.09;5092807;28;20044;-88
2022/07/25 07:24:52;;;;;;;2.53;0.60;;;;;;;19.56;100.00;99543.41;5070853;28;20546;-90
2022/07/25 07:27:33;;;;;;;0.82;0.55;;;;;;;19.34;100.00;99541.94;5080259;28;20041;-89
2022/07/25 07:30:14;;;;;;;0.90;0.52;;;;;;;19.58;100.00;99554.72;5050572;28;20136;-89
2022/07/25 07:32:55;;;;;;;1.60;0.95;;;;;;;19.38;100.00;99548.63;5069683;28;20049;-89
2022/07/25 07:35:35;;;;;;;1.13;0.60;;;;;;;19.51;100.00;99521.78;5054449;28;20064;-88
2022/07/25 07:38:17;;;;;;;1.08;0.60;;;;;;;19.64;100.00;99561.28;5067767;28;20048;-89
2022/07/25 07:40:57;;;;;;;1.52;0.70;;;;;;;19.28;100.00;99534.53;5066219;28;20079;-89
2022/07/25 07:43:38;;;;;;;1.35;0.60;;;;;;;19.50;100.00;99541.34;5063180;28;20033;-89
2022/07/25 07:46:19;;;;;;;0.60;0.57;;;;;;;19.78;100.00;99552.03;5075191;28;20060;-89
2022/07/25 07:48:59;;;;;;;1.63;0.60;;;;;;;19.63;100.00;99530.41;5057246;28;20071;-88
2022/07/25 07:51:40;;;;;;;0.93;0.60;;;;;;;19.85;100.00;99571.72;5068292;28;20029;-89
2022/07/25 07:57:21;;;;;;;0.88;0.60;;;;;;;19.63;100.00;99571.06;5080799;28;20057;-90
2022/07/25 08:00:04;;;;;;;0.88;0.60;;;;;;;19.44;100.00;99577.28;5067357;28;20081;-89
2022/07/25 08:02:52;;;;;;;3.45;0.80;;;;;;;19.08;100.00;99594.75;5073907;28;20056;-87
2022/07/25 08:05:37;;;;;;;1.27;0.70;;;;;;;19.16;100.00;99595.75;5070532;28;20052;-89
2022/07/25 08:08:19;;;;;;;1.17;0.70;;;;;;;19.44;100.00;99598.50;5066951;28;20021;-89
2022/07/25 08:11:00;;;;;;;1.40;0.70;;;;;;;19.42;100.00;99589.00;5044956;28;20508;-91
2022/07/25 08:13:41;;;;;;;0.75;0.60;;;;;;;18.86;100.00;99566.72;5074742;28;20070;-88
2022/07/25 08:16:22;;;;;;;1.63;0.70;;;;;;;19.37;100.00;99584.13;5075227;28;20084;-88
2022/07/25 08:19:03;;;;;;;1.42;0.60;;;;;;;19.52;100.00;99598.59;5089137;28;20097;-89
2022/07/25 08:21:45;;;;;;;1.70;0.60;;;;;;;19.06;100.00;99588.75;5080971;28;20075;-88
2022/07/25 08:24:27;;;;;;;1.00;0.60;;;;;;;19.14;100.00;99618.94;5056254;28;20048;-88
2022/07/25 08:27:09;;;;;;;0.77;0.63;;;;;;;19.09;100.00;99596.44;5056358;28;20749;-89
2022/07/25 08:29:50;;;;;;;0.88;0.60;;;;;;;19.26;100.00;99616.94;5077209;28;20028;-88
2022/07/25 08:32:31;;;;;;;0.57;0.50;;;;;;;19.41;100.00;99609.41;5044992;28;20108;-88
2022/07/25 08:34:58;;;;;;;1.75;0.60;;;;;;;18.80;100.00;99644.97;5055710;28;20060;-89
2022/07/25 08:37:39;;;;;;;2.58;0.65;;;;;;;18.04;100.00;99661.31;5057679;28;20049;-87
2022/07/25 08:40:22;;;;;;;0.68;0.47;;;;;;;17.54;100.00;99648.72;5068911;28;20060;-88
2022/07/25 08:42:49;;;;;;;0.50;0.50;;;;;;;16.82;100.00;99644.06;5074144;28;20048;-86
2022/07/25 08:45:20;;;;;;;3.00;0.50;;;;;;;16.68;100.00;99650.50;5072086;28;20044;-86
2022/07/25 08:47:51;;;;;;;0.50;0.50;;;;;;;16.63;100.00;99673.78;5090856;28;20104;-87
2022/07/25 09:01:07;;;;;;;1.27;0.63;;;;;;;16.44;100.00;99655.91;5100332;27;20378;-86
2022/07/25 09:03:35;;;;;;;3.35;0.73;;;;;;;16.77;100.00;99710.53;5087834;28;20044;-85
2022/07/25 09:06:19;;;;;;;1.67;0.70;;;;;;;17.01;100.00;99726.25;5082969;28;20045;-86
2022/07/25 09:08:58;;;;;;;2.03;0.65;;;;;;;16.48;100.00;99702.25;5077054;28;20045;-86
2022/07/25 09:11:36;;;;;;;1.90;0.70;;;;;;;16.67;100.00;99751.88;5066066;28;20059;-85
2022/07/25 09:14:11;;;;;;;1.50;0.65;;;;;;;16.09;100.00;99723.72;5089381;28;20144;-86
2022/07/25 09:16:42;;;;;;;1.25;0.60;;;;;;;16.18;100.00;99730.09;5076977;28;20056;-87
2022/07/25 09:19:13;;;;;;;1.63;0.70;;;;;;;16.11;100.00;99753.50;5073875;28;20040;-85
2022/07/25 09:21:42;;;;;;;3.05;0.70;;;;;;;16.06;100.00;99742.47;5078634;28;20505;-85
2022/07/25 09:24:21;;;;;;;1.38;0.60;;;;;;;16.07;100.00;99724.81;5085214;28;20488;-85
2022/07/25 09:26:52;;;;;;;1.60;0.70;;;;;;;16.35;100.00;99783.44;5077263;28;20025;-86
2022/07/25 09:29:23;;;;;;;0.70;0.60;;;;;;;16.46;100.00;99800.13;5075411;28;20053;-85
2022/07/25 09:31:52;;;;;;;3.60;0.70;;;;;;;16.17;100.00;99788.34;5071949;28;20055;-87
2022/07/25 09:34:37;;;;;;;1.08;0.70;;;;;;;16.33;100.00;99821.38;5076088;28;20131;-85
2022/07/25 09:37:11;;;;;;;0.98;0.70;;;;;;;15.86;100.00;99807.31;5076411;28;20056;-86
2022/07/25 09:39:43;;;;;;;2.58;1.02;;;;;;;15.74;100.00;99835.47;5080682;28;20044;-86
2022/07/25 09:42:26;;;;;;;1.27;0.60;;;;;;;15.80;100.00;99806.94;5074591;28;20056;-86
2022/07/25 09:45:13;;;;;;;2.50;0.80;;;;;;;15.62;100.00;99799.38;5089161;28;20047;-86
2022/07/25 09:47:55;;;;;;;3.33;0.70;;;;;;;15.80;100.00;99857.09;5071026;28;20136;-86
2022/07/25 09:50:24;;;;;;;1.52;0.70;;;;;;;15.62;100.00;99846.88;5071588;28;20048;-87
2022/07/25 09:52:53;;;;;;;3.17;0.70;;;;;;;15.61;100.00;99849.63;5077339;28;20044;-85
2022/07/25 09:55:21;;;;;;;4.00;0.88;;;;;;;15.89;100.00;99864.31;5076219;28;20044;-85
2022/07/25 09:57:48;;;;;;;4.72;0.80;;;;;;;15.43;100.00;99884.28;5079224;28;20068;-83
2022/07/25 10:00:22;;;;;;;1.52;0.80;;;;;;;15.86;100.00;99893.56;5066987;28;20045;-86
2022/07/25 10:02:58;;;;;;;3.08;0.80;;;;;;;16.05;100.00;99916.84;5053914;28;20072;-86
2022/07/25 10:05:46;;;;;;;2.00;0.63;;;;;;;15.75;100.00;99912.84;5063339;28;20045;-86
2022/07/25 10:08:13;;;;;;;2.53;0.80;;;;;;;15.52;100.00;99885.44;5063608;28;20049;-86
2022/07/25 10:10:41;;;;;;;1.92;0.70;;;;;;;15.51;100.00;99925.94;5056408;28;20479;-86
2022/07/25 10:13:15;;;;;;;4.30;0.88;;;;;;;15.40;100.00;99904.78;5059691;28;20048;-86
2022/07/25 10:15:50;;;;;;;3.00;0.80;;;;;;;15.66;100.00;99943.34;5055058;28;20394;-85
2022/07/25 10:18:20;;;;;;;1.40;0.75;;;;;;;15.70;100.00;99939.50;5061189;28;20048;-86
2022/07/25 10:21:15;;;;;;;3.38;1.02;;;;;;;15.60;100.00;99956.97;5062253;28;20127;-86
2022/07/25 10:24:03;;;;;;;1.35;0.70;;;;;;;15.54;100.00;99958.22;5057930;28;20099;-87
2022/07/25 10:26:33;;;;;;;5.95;0.90;;;;;;;15.34;100.00;99946.44;5070734;28;20048;-87
2022/07/25 10:29:07;;;;;;;2.20;0.80;;;;;;;15.04;100.00;99907.25;5063745;28;20068;-86
2022/07/25 10:31:38;;;;;;;1.65;0.80;;;;;;;15.10;100.00;99919.16;5059805;28;20063;-86
2022/07/25 10:34:07;;;;;;;3.25;0.93;;;;;;;15.60;100.00;99975.44;5059164;28;20049;-86
2022/07/25 10:36:50;;;;;;;2.53;1.33;;;;;;;15.49;100.00;99923.44;5067768;28;20394;-86
2022/07/25 10:39:20;;;;;;;2.60;0.93;;;;;;;15.66;100.00;99974.16;5060053;28;20053;-86
2022/07/25 10:41:57;;;;;;;2.83;0.90;;;;;;;15.11;100.00;99968.31;5060482;28;20055;-87
2022/07/25 10:44:29;;;;;;;4.93;0.90;;;;;;;15.21;100.00;99982.56;5059774;28;20049;-87
2022/07/25 10:47:09;;;;;;;3.33;0.90;;;;;;;15.77;100.00;100002.47;5056200;28;20053;-86
2022/07/25 10:49:40;;;;;;;3.67;1.17;;;;;;;15.74;100.00;100003.47;5060050;28;20083;-88
2022/07/25 10:52:30;;;;;;;3.33;1.00;;;;;;;16.06;100.00;100008.28;5060144;28;20045;-86
2022/07/25 10:54:59;;;;;;;4.93;1.30;;;;;;;16.07;100.00;100008.16;5061668;28;20077;-86
2022/07/25 10:57:28;;;;;;;5.13;0.90;;;;;;;15.99;100.00;100021.09;5059111;28;20079;-87
2022/07/25 11:00:06;;;;;;;4.05;1.00;;;;;;;15.93;100.00;100019.72;5060611;28;20033;-86
2022/07/25 11:02:32;;;;;;;5.38;1.13;;;;;;;15.68;100.00;99996.84;5056790;28;20427;-86
2022/07/25 11:05:01;;;;;;;5.55;1.13;;;;;;;16.20;100.00;100031.91;5064366;28;20063;-85
2022/07/25 11:07:34;;;;;;;4.05;1.20;;;;;;;15.82;100.00;100018.81;5058175;28;20091;-87
2022/07/25 11:10:04;;;;;;;5.93;1.40;;;;;;;15.67;100.00;100013.63;5063615;28;20380;-85
2022/07/25 11:12:32;;;;;;;3.28;0.85;;;;;;;15.51;100.00;100061.34;5064403;28;20053;-86
2022/07/25 11:15:01;;;;;;;3.15;1.05;;;;;;;14.82;100.00;100002.78;5061334;28;20045;-86
2022/07/25 11:17:29;;;;;;;1.42;0.80;;;;;;;15.08;100.00;100010.69;5058161;28;20083;-86
2022/07/25 11:19:57;;;;;;;3.53;0.93;;;;;;;15.70;100.00;100028.41;5056091;28;20049;-86
2022/07/25 11:22:24;;;;;;;4.43;1.00;;;;;;;15.80;100.00;100069.06;5057037;28;20109;-85
2022/07/25 11:24:52;;;;;;;5.18;1.13;;;;;;;15.33;100.00;100030.94;5062839;28;20425;-86
2022/07/25 11:27:29;;;;;;;4.40;0.98;;;;;;;15.40;100.00;100060.41;5047881;28;20053;-85
2022/07/25 11:30:10;;;;;;;3.30;0.98;;;;;;;15.66;100.00;100077.06;5044201;28;20068;-86
2022/07/25 11:32:39;;;;;;;3.78;1.00;;;;;;;15.22;100.00;100088.88;5055056;28;20139;-86
2022/07/25 11:35:07;;;;;;;2.80;0.95;;;;;;;14.75;100.00;100049.75;5064595;28;20053;-86
2022/07/25 11:37:38;;;;;;;3.00;1.20;;;;;;;14.55;100.00;100037.84;5055154;28;20056;-85
2022/07/25 11:40:06;;;;;;;2.38;0.90;;;;;;;15.06;100.00;100118.88;5053898;28;20059;-85
2022/07/25 11:42:40;;;;;;;4.47;1.35;;;;;;;14.63;100.00;100083.97;5059454;28;20088;-85
2022/07/25 11:45:21;;;;;;;4.25;1.20;;;;;;;15.01;100.00;100128.88;5064493;28;20071;-85
2022/07/25 11:48:34;;;;;;;4.68;1.20;;;;;;;14.71;100.00;100102.75;5061925;28;20055;-85
2022/07/25 11:51:13;;;;;;;4.77;1.53;;;;;;;14.54;100.00;100124.91;4954796;28;20058;-85
2022/07/25 11:53:49;;;;;;;6.90;1.50;;;;;;;14.43;100.00;100070.28;5051632;28;20285;-85